Avocet Arrow — C6CG2 — position and weather

sailwx.info

Track history (hours):
 
Tides and Currents Weather Stations Pressure Air Temp Water Temp Dewpoint Dewpoint Depression Visibility Wind Speed Wind Dir Waves Ship Positions

Avocet Arrow

Last reported at 2018-May-01 22:23 UTC. Time now 2018-May-28 03:15 UTC.
Position N 32°02' E 139°03'.
Warning: this ship's position is 26 days out of date.

Length 200 m; draft 8.2 m.

Type: Cargo ship. MMSI: 311000462.

Date/timePositionNaut miles runAvg speedWind from/ knotsBaromVisibWave heightAir tempDewpointWater temp
2018-May-01 22:23N 32°02' E 139°03'50810.1
2018-Apr-29 20:07N 33°53' E 129°12'412.8
2018-Apr-29 19:51N 33°55' E 129°15'612.7
2018-Apr-29 19:21N 34°00' E 129°20'512.5
2018-Apr-29 18:57N 34°04' E 129°24'612.3
2018-Apr-29 18:27N 34°09' E 129°29'711.8
2018-Apr-29 17:54N 34°14' E 129°34'511.8
2018-Apr-29 17:30N 34°18' E 129°36'612.3
2018-Apr-29 17:00N 34°24' E 129°38'612.6
2018-Apr-29 16:30N 34°30' E 129°39'612.6
2018-Apr-29 16:00N 34°36' E 129°41'612.5
2018-Apr-29 15:30N 34°42' E 129°43'612.4
2018-Apr-29 14:59N 34°49' E 129°45'  
Track history (hours):
 
Tides and Currents Weather Stations Pressure Air Temp Water Temp Dewpoint Dewpoint Depression Visibility Wind Speed Wind Dir Waves Ship Positions

Avocet Arrow

Last reported at 2018-May-01 22:23 UTC. Time now 2018-May-28 03:15 UTC.
Position N 32°02' E 139°03'.
Warning: this ship's position is 26 days out of date.

Length 200 m; draft 8.2 m.

Type: Cargo ship. MMSI: 311000462.

Date/timePositionNaut miles runAvg speedWind from/ knotsBaromVisibWave heightAir tempDewpointWater temp
2018-May-01 22:23N 32°02' E 139°03'50810.1
2018-Apr-29 20:07N 33°53' E 129°12'412.8
2018-Apr-29 19:51N 33°55' E 129°15'612.7
2018-Apr-29 19:21N 34°00' E 129°20'512.5
2018-Apr-29 18:57N 34°04' E 129°24'612.3
2018-Apr-29 18:27N 34°09' E 129°29'711.8
2018-Apr-29 17:54N 34°14' E 129°34'511.8
2018-Apr-29 17:30N 34°18' E 129°36'612.3
2018-Apr-29 17:00N 34°24' E 129°38'612.6
2018-Apr-29 16:30N 34°30' E 129°39'612.6
2018-Apr-29 16:00N 34°36' E 129°41'612.5
2018-Apr-29 15:30N 34°42' E 129°43'612.4
2018-Apr-29 14:59N 34°49' E 129°45'  

Dump ship's entire track history